createdAt,value
2019-05-16T00:02:21.604Z,3.12
2019-05-16T00:07:25.069Z,1.45
2019-05-16T00:12:29.198Z,0.93
2019-05-16T00:17:32.779Z,1.02
2019-05-16T00:22:36.244Z,1.70
2019-05-16T00:27:39.707Z,1.20
2019-05-16T00:32:43.171Z,1.30
2019-05-16T00:37:48.379Z,1.35
2019-05-16T00:42:52.137Z,0.93
2019-05-16T00:47:55.599Z,1.70
2019-05-16T00:52:59.284Z,1.45
2019-05-16T00:58:04.196Z,0.75
2019-05-16T01:03:08.156Z,1.25
2019-05-16T01:08:11.928Z,0.70
2019-05-16T01:13:15.385Z,1.15
2019-05-16T01:18:18.964Z,0.70
2019-05-16T01:23:22.381Z,1.50
2019-05-16T01:28:25.840Z,1.30
2019-05-16T01:33:29.303Z,1.22
2019-05-16T01:38:32.771Z,1.10
2019-05-16T01:43:37.703Z,0.93
2019-05-16T01:48:41.268Z,0.80
2019-05-16T01:53:44.736Z,0.60
2019-05-16T01:58:49.126Z,1.40
2019-05-16T02:03:52.891Z,1.15
2019-05-16T02:08:57.957Z,1.20
2019-05-16T02:14:01.514Z,0.90
2019-05-16T02:19:05.045Z,1.10
2019-05-16T02:24:08.970Z,1.35
2019-05-16T02:29:13.729Z,0.93
2019-05-16T02:34:17.396Z,1.62
2019-05-16T02:39:21.333Z,1.40
2019-05-16T02:44:25.062Z,0.80
2019-05-16T02:49:30.656Z,1.17
2019-05-16T02:54:33.781Z,1.00
2019-05-16T02:59:37.264Z,1.40
2019-05-16T03:04:44.100Z,0.85
2019-05-16T03:09:46.660Z,1.55
2019-05-16T03:14:54.473Z,1.02
2019-05-16T03:20:01.461Z,1.65
2019-05-16T03:25:04.897Z,1.02
2019-05-16T03:30:14.423Z,0.80
2019-05-16T03:35:16.045Z,0.80
2019-05-16T03:40:24.733Z,1.47
2019-05-16T03:45:31.454Z,0.93
2019-05-16T03:50:33.381Z,1.40
2019-05-16T03:55:36.833Z,0.68
2019-05-16T04:00:53.287Z,2.85
2019-05-16T04:05:56.911Z,2.75
2019-05-16T04:11:01.355Z,1.27
2019-05-16T04:16:05.187Z,1.40
2019-05-16T04:21:11.742Z,3.58
2019-05-16T04:26:13.833Z,2.27
2019-05-16T04:31:17.303Z,1.17
2019-05-16T04:36:21.408Z,3.52
2019-05-16T04:41:25.066Z,1.60
2019-05-16T04:46:31.295Z,0.88
2019-05-16T04:51:33.735Z,1.35
2019-05-16T04:56:37.191Z,0.82
2019-05-16T05:01:41.331Z,1.25
2019-05-16T05:06:44.886Z,1.07
2019-05-16T05:11:51.685Z,1.27
2019-05-16T05:16:53.530Z,1.20
2019-05-16T05:21:56.988Z,0.88
2019-05-16T05:27:00.440Z,0.80
2019-05-16T05:32:05.381Z,1.30
2019-05-16T05:37:12.601Z,0.80
2019-05-16T05:42:14.308Z,1.37
2019-05-16T05:47:20.031Z,0.93
2019-05-16T05:52:22.956Z,0.95
2019-05-16T05:57:26.430Z,0.53
2019-05-16T06:02:30.954Z,1.02
2019-05-16T06:07:34.574Z,1.27
2019-05-16T06:12:40.553Z,0.72
2019-05-16T06:17:43.221Z,0.80
2019-05-16T06:22:46.678Z,0.88
2019-05-16T06:27:51.201Z,0.70
2019-05-16T06:32:54.775Z,1.05
2019-05-16T06:38:00.480Z,1.17
2019-05-16T06:43:03.448Z,0.60
2019-05-16T06:48:07.128Z,1.02
2019-05-16T06:53:10.596Z,1.60
2019-05-16T06:58:14.046Z,2.33
2019-05-16T07:03:20.110Z,1.65
2019-05-16T07:08:22.706Z,0.68
2019-05-16T07:13:26.160Z,1.47
2019-05-16T07:18:30.951Z,1.92
2019-05-16T07:23:34.687Z,3.27
2019-05-16T07:28:40.438Z,1.27
2019-05-16T07:33:43.356Z,1.45
2019-05-16T07:38:46.871Z,0.80
2019-05-16T07:43:50.760Z,0.80
2019-05-16T07:48:54.342Z,0.88
2019-05-16T07:53:59.706Z,1.30
2019-05-16T07:59:02.973Z,1.07
2019-05-16T08:04:06.435Z,0.68
2019-05-16T08:09:12.744Z,0.82
2019-05-16T08:14:15.082Z,1.45
2019-05-16T08:19:20.021Z,2.42
2019-05-16T08:24:23.734Z,0.70
2019-05-16T08:29:27.198Z,0.72
2019-05-16T08:34:32.231Z,2.90
2019-05-16T08:39:35.899Z,0.70
2019-05-16T08:49:44.548Z,2.72
2019-05-16T08:54:50.892Z,1.63
2019-05-16T08:59:53.250Z,1.25
2019-05-16T09:04:56.663Z,0.95
2019-05-16T09:10:00.515Z,1.70
2019-05-16T09:10:29.684Z,1.32
2019-05-16T09:15:07.694Z,0.68
2019-05-16T09:20:10.900Z,1.90
2019-05-16T09:25:18.187Z,1.65
2019-05-16T09:30:20.848Z,2.40
2019-05-16T09:35:24.301Z,0.63
2019-05-16T09:40:28.010Z,0.80
2019-05-16T09:45:31.597Z,0.70
2019-05-16T09:50:37.747Z,3.00
2019-05-16T09:55:40.795Z,2.10
2019-05-16T10:00:47.179Z,1.05
2019-05-16T10:05:49.451Z,1.20
2019-05-16T10:10:52.919Z,1.55
2019-05-16T10:15:56.382Z,1.65
2019-05-16T10:20:59.848Z,0.78
2019-05-16T10:26:03.308Z,1.57
2019-05-16T10:31:07.074Z,1.77
2019-05-16T10:36:10.755Z,1.22
2019-05-16T10:41:14.266Z,1.05
2019-05-16T10:46:17.979Z,2.37
2019-05-16T10:51:23.924Z,3.00
2019-05-16T10:56:26.634Z,1.60
2019-05-16T11:01:31.267Z,0.37
2019-05-16T11:06:37.092Z,1.32
2019-05-16T11:11:40.217Z,1.37
2019-05-16T11:16:43.683Z,1.82
2019-05-16T11:21:47.135Z,2.15
2019-05-16T11:26:50.626Z,1.05
2019-05-16T11:31:54.067Z,1.20
2019-05-16T11:36:57.520Z,1.65
2019-05-16T11:42:00.984Z,1.15
2019-05-16T11:47:04.457Z,0.70
2019-05-16T11:52:07.914Z,0.68
2019-05-16T11:57:11.394Z,0.40
2019-05-16T12:02:17.336Z,1.57
2019-05-16T12:07:20.023Z,0.95
2019-05-16T12:12:23.482Z,1.30
2019-05-16T12:17:27.963Z,0.50
2019-05-16T12:22:31.610Z,0.78
2019-05-16T12:27:41.685Z,1.27
2019-05-16T12:32:40.318Z,0.80
2019-05-16T12:37:43.813Z,0.72
2019-05-16T12:42:47.391Z,0.93
2019-05-16T12:47:50.839Z,0.85
2019-05-16T12:52:56.799Z,2.70
2019-05-16T12:58:12.696Z,0.42
2019-05-16T13:03:06.970Z,0.43
2019-05-16T13:08:09.847Z,0.70
2019-05-16T13:13:13.314Z,0.47
2019-05-16T13:18:17.161Z,0.45
2019-05-16T13:23:20.685Z,1.85
2019-05-16T13:28:24.185Z,0.75
2019-05-16T13:33:27.611Z,1.00
2019-05-16T13:38:31.072Z,0.80
2019-05-16T13:43:34.517Z,0.82
2019-05-16T13:48:38.026Z,2.55
2019-05-16T13:53:41.466Z,0.50
2019-05-16T13:58:46.998Z,2.40
2019-05-16T14:03:50.143Z,1.82
2019-05-16T14:08:53.595Z,0.80
2019-05-16T14:13:57.122Z,5.83
2019-05-16T14:19:00.592Z,2.85
2019-05-16T14:24:04.122Z,2.22
2019-05-16T14:29:08.154Z,3.05
2019-05-16T14:34:11.707Z,3.70
2019-05-16T14:39:19.498Z,1.72
2019-05-16T14:44:21.093Z,1.12
2019-05-16T14:49:24.556Z,1.00
2019-05-16T14:54:28.006Z,4.05
2019-05-16T14:59:31.484Z,0.75
2019-05-16T15:04:37.414Z,1.75
2019-05-16T15:09:40.125Z,0.78
2019-05-16T15:14:43.588Z,0.98
2019-05-16T15:19:47.046Z,1.47
2019-05-16T15:24:50.495Z,4.45
2019-05-16T15:29:53.954Z,1.20
2019-05-16T15:34:57.437Z,5.08
2019-05-16T15:40:00.895Z,2.25
2019-05-16T15:45:06.973Z,4.65
2019-05-16T15:50:14.114Z,5.40
2019-05-16T15:55:18.434Z,3.30
2019-05-16T16:00:27.666Z,2.00
2019-05-16T16:05:31.122Z,5.78
2019-05-16T16:10:37.920Z,1.47
2019-05-16T16:15:50.604Z,2.60
2019-05-16T16:20:47.805Z,5.20
2019-05-16T16:25:51.893Z,4.95
2019-05-16T16:30:56.939Z,15.80
2019-05-16T16:36:00.607Z,22.07
2019-05-16T16:41:04.241Z,41.47
2019-05-16T16:46:12.874Z,29.85
2019-05-16T16:51:12.897Z,30.92
2019-05-16T16:56:16.943Z,24.05
2019-05-16T17:01:20.424Z,24.20
2019-05-16T17:06:26.886Z,17.42
2019-05-16T17:11:29.081Z,18.67
2019-05-16T17:16:32.558Z,19.52
2019-05-16T17:21:36.799Z,16.37
2019-05-16T17:26:40.345Z,19.50
2019-05-16T17:31:43.882Z,13.48
2019-05-16T17:36:47.367Z,12.80
2019-05-16T17:41:54.770Z,13.22
2019-05-16T17:46:57.559Z,12.18
2019-05-16T17:52:01.259Z,12.18
2019-05-16T17:57:07.243Z,13.10
2019-05-16T18:02:09.981Z,10.70
2019-05-16T18:07:13.447Z,12.03
2019-05-16T18:12:17.567Z,10.53
2019-05-16T18:17:21.142Z,8.48
2019-05-16T18:22:24.595Z,8.25
2019-05-16T18:27:28.051Z,8.70
2019-05-16T18:32:31.499Z,8.05
2019-05-16T18:37:34.983Z,7.67
2019-05-16T18:42:38.435Z,9.83
2019-05-16T18:47:41.908Z,9.78
2019-05-16T18:52:47.126Z,8.50
2019-05-16T18:57:50.753Z,7.20
2019-05-16T19:02:56.416Z,6.17
2019-05-16T19:07:59.550Z,7.87
2019-05-16T19:13:03.145Z,6.92
2019-05-16T19:18:07.137Z,6.72
2019-05-16T19:23:10.599Z,8.58
2019-05-16T19:28:14.080Z,7.05
2019-05-16T19:33:17.703Z,7.90
2019-05-16T19:38:21.190Z,7.12
2019-05-16T19:43:26.496Z,8.13
2019-05-16T19:48:29.861Z,8.70
2019-05-16T19:53:33.330Z,4.65
2019-05-16T19:58:37.348Z,6.75
2019-05-16T20:03:40.952Z,7.05
2019-05-16T20:08:44.457Z,6.92
2019-05-16T20:13:47.945Z,5.93
2019-05-16T20:18:51.434Z,6.00
2019-05-16T20:23:56.788Z,8.50
2019-05-16T20:29:00.113Z,7.67
2019-05-16T20:34:03.584Z,6.65
2019-05-16T20:39:08.536Z,5.65
2019-05-16T20:44:12.113Z,5.28
2019-05-16T20:49:16.795Z,5.60
2019-05-16T20:54:20.415Z,6.78
2019-05-16T20:59:23.894Z,4.92
2019-05-16T21:04:27.382Z,7.17
2019-05-16T21:09:30.857Z,4.97
2019-05-16T21:14:34.330Z,7.92
2019-05-16T21:19:39.195Z,5.05
2019-05-16T21:24:42.957Z,5.53
2019-05-16T21:29:47.150Z,5.12
2019-05-16T21:34:50.675Z,4.33
2019-05-16T21:39:54.151Z,4.40
2019-05-16T21:44:57.621Z,4.57
2019-05-16T21:50:01.107Z,5.65
2019-05-16T21:55:07.537Z,4.36
2019-05-16T22:00:17.304Z,3.92
2019-05-16T22:05:20.781Z,5.43
2019-05-16T22:10:26.446Z,4.00
2019-05-16T22:15:29.449Z,6.37
2019-05-16T22:20:33.087Z,4.90
2019-05-16T22:25:36.634Z,6.45
2019-05-16T22:30:40.114Z,3.65
2019-05-16T22:35:43.583Z,3.33
2019-05-16T22:40:47.053Z,5.08
2019-05-16T22:45:50.526Z,4.50
2019-05-16T22:50:56.348Z,4.35
2019-05-16T22:55:59.195Z,3.67
2019-05-16T23:01:03.581Z,2.90
2019-05-16T23:06:07.781Z,3.30
2019-05-16T23:11:11.407Z,3.75
2019-05-16T23:16:17.005Z,3.30
2019-05-16T23:21:20.148Z,3.77
2019-05-16T23:26:23.625Z,3.37
2019-05-16T23:31:29.210Z,4.10
2019-05-16T23:36:34.200Z,3.50
2019-05-16T23:41:37.708Z,4.87
2019-05-16T23:46:41.173Z,4.03
2019-05-16T23:51:44.643Z,5.78
2019-05-16T23:56:48.111Z,5.70
